Time,TemperatureF,DewpointF,PressureIn,WindDirection,WindDirectionDegrees,WindSpeedMPH,WindSpeedGustMPH,Humidity,HourlyPrecipIn,Conditions,Clouds,dailyrainin,SolarRadiationWatts/m^2,SoftwareType,DateUTC
2013-02-10 00:00:00,46.8,45.4,29.98,East,98,1.0,3.0,95,0.02,RA,,0.00,0.0,WeatherDisplay:10.37,2013-02-09 22:00:00,
2013-02-10 00:10:00,46.7,45.6,29.98,ESE,113,0.0,4.0,96,0.00,CLR,,0.00,0.0,WeatherDisplay:10.37,2013-02-09 22:10:00,
2013-02-10 00:20:00,46.6,45.5,29.98,ESE,120,1.0,4.0,96,0.00,,,0.00,0.0,WeatherDisplay:10.37,2013-02-09 22:20:00,
2013-02-10 00:30:00,46.6,45.5,29.97,SSE,158,2.0,6.0,96,0.00,,,0.00,0.0,WeatherDisplay:10.37,2013-02-09 22:30:00,
2013-02-10 00:40:00,46.6,45.2,29.97,SSE,158,2.0,3.0,95,0.00,CLR,,0.00,0.0,WeatherDisplay:10.37,2013-02-09 22:40:00,
2013-02-10 00:50:00,46.5,45.1,29.97,SSE,157,2.0,4.0,95,0.00,CLR,,0.00,0.0,WeatherDisplay:10.37,2013-02-09 22:50:00,
2013-02-10 01:00:00,46.4,45.0,29.96,SE,129,3.0,5.0,95,0.01,RA,,0.01,0.0,WeatherDisplay:10.37,2013-02-09 23:00:00,
2013-02-10 01:10:00,46.4,45.0,29.96,ESE,102,1.0,4.0,95,0.00,CLR,,0.01,0.0,WeatherDisplay:10.37,2013-02-09 23:10:00,
2013-02-10 01:20:00,46.3,44.9,29.97,East,81,5.0,7.0,95,0.00,CLR,,0.01,0.0,WeatherDisplay:10.37,2013-02-09 23:20:00,
2013-02-10 01:30:00,46.2,44.8,29.97,NE,55,3.0,7.0,95,0.00,CLR,,0.01,0.0,WeatherDisplay:10.37,2013-02-09 23:30:00,
2013-02-10 01:40:00,46.0,44.9,29.97,ENE,65,6.0,8.0,96,0.00,,,0.01,0.0,WeatherDisplay:10.37,2013-02-09 23:40:00,
2013-02-10 01:50:00,45.9,44.8,29.96,East,87,5.0,6.0,96,0.00,,,0.01,0.0,WeatherDisplay:10.37,2013-02-09 23:50:00,
2013-02-10 02:00:00,45.8,44.4,29.96,East,100,3.0,6.0,95,0.00,CLR,,0.01,0.0,WeatherDisplay:10.37,2013-02-10 00:00:00,
2013-02-10 02:10:00,45.6,44.5,29.96,ESE,117,5.0,7.0,96,0.00,,,0.01,0.0,WeatherDisplay:10.37,2013-02-10 00:10:00,
2013-02-10 02:20:00,45.5,44.5,29.96,ESE,110,5.0,7.0,96,0.00,,,0.01,0.0,WeatherDisplay:10.37,2013-02-10 00:20:00,
2013-02-10 02:30:00,45.5,44.4,29.96,ESE,116,3.0,7.0,96,0.00,,,0.01,0.0,WeatherDisplay:10.37,2013-02-10 00:30:00,
2013-02-10 02:40:00,45.5,44.4,29.96,ESE,123,5.0,7.0,96,0.00,,,0.01,0.0,WeatherDisplay:10.37,2013-02-10 00:40:00,
2013-02-10 02:50:00,45.4,44.3,29.96,ESE,114,5.0,7.0,96,0.00,,,0.01,0.0,WeatherDisplay:10.37,2013-02-10 00:50:00,
2013-02-10 03:00:00,45.3,44.2,29.95,SE,124,6.0,9.0,96,0.00,,,0.01,0.0,WeatherDisplay:10.37,2013-02-10 01:00:00,
2013-02-10 03:10:00,45.2,44.1,29.95,SE,128,6.0,8.0,96,0.00,,,0.01,0.0,WeatherDisplay:10.37,2013-02-10 01:10:00,
2013-02-10 03:20:00,45.2,44.1,29.95,SE,127,5.0,7.0,96,0.00,,,0.01,0.0,WeatherDisplay:10.37,2013-02-10 01:20:00,
2013-02-10 03:30:00,45.2,44.1,29.94,SE,131,3.0,5.0,96,0.00,,,0.01,0.0,WeatherDisplay:10.37,2013-02-10 01:30:00,
2013-02-10 03:40:00,45.4,44.4,29.94,SE,137,2.0,5.0,96,0.00,,,0.01,0.0,WeatherDisplay:10.37,2013-02-10 01:40:00,
2013-02-10 03:50:00,45.7,44.6,29.94,SE,141,3.0,5.0,96,0.00,,,0.01,0.0,WeatherDisplay:10.37,2013-02-10 01:50:00,
2013-02-10 04:00:00,45.9,44.5,29.94,SSE,152,3.0,6.0,95,0.00,CLR,,0.01,0.0,WeatherDisplay:10.37,2013-02-10 02:00:00,
2013-02-10 04:10:00,45.9,44.5,29.94,SSE,150,3.0,5.0,95,0.00,CLR,,0.01,0.0,WeatherDisplay:10.37,2013-02-10 02:10:00,
2013-02-10 04:20:00,45.9,44.3,29.93,SSE,150,3.0,5.0,94,0.00,CLR,,0.01,0.0,WeatherDisplay:10.37,2013-02-10 02:20:00,
2013-02-10 04:30:00,46.1,44.4,29.93,SSE,150,2.0,5.0,94,0.00,CLR,,0.01,0.0,WeatherDisplay:10.37,2013-02-10 02:30:00,
2013-02-10 04:40:00,46.1,44.2,29.94,SSE,150,2.0,4.0,93,0.00,CLR,,0.01,0.0,WeatherDisplay:10.37,2013-02-10 02:40:00,
2013-02-10 04:50:00,46.0,44.1,29.93,SSE,150,3.0,4.0,93,0.00,CLR,,0.01,0.0,WeatherDisplay:10.37,2013-02-10 02:50:00,
2013-02-10 05:00:00,45.7,43.8,29.93,SSE,150,2.0,3.0,93,0.00,CLR,,0.01,0.0,WeatherDisplay:10.37,2013-02-10 03:00:00,
2013-02-10 05:10:00,45.6,43.7,29.93,SSE,150,1.0,3.0,93,0.00,CLR,,0.01,0.0,WeatherDisplay:10.37,2013-02-10 03:10:00,
2013-02-10 05:20:00,45.3,43.4,29.93,SE,144,2.0,4.0,93,0.00,CLR,,0.01,0.0,WeatherDisplay:10.37,2013-02-10 03:20:00,
2013-02-10 05:30:00,45.1,43.2,29.93,SE,141,3.0,5.0,93,0.00,CLR,,0.01,0.0,WeatherDisplay:10.37,2013-02-10 03:30:00,
2013-02-10 05:40:00,45.6,43.6,29.92,SE,143,5.0,6.0,93,0.00,CLR,,0.01,0.0,WeatherDisplay:10.37,2013-02-10 03:40:00,
2013-02-10 05:50:00,46.0,43.8,29.92,SE,142,3.0,6.0,92,0.00,CLR,,0.01,0.0,WeatherDisplay:10.37,2013-02-10 03:50:00,
2013-02-10 06:00:00,46.4,43.9,29.92,SE,133,3.0,6.0,91,0.00,CLR,,0.01,0.0,WeatherDisplay:10.37,2013-02-10 04:00:00,
2013-02-10 06:10:00,46.6,43.8,29.92,SE,139,2.0,4.0,90,0.00,CLR,,0.01,0.0,WeatherDisplay:10.37,2013-02-10 04:10:00,
2013-02-10 06:20:00,46.7,43.6,29.92,SE,141,2.0,4.0,89,0.00,CLR,,0.01,0.0,WeatherDisplay:10.37,2013-02-10 04:20:00,
2013-02-10 06:30:00,46.8,43.7,29.91,SE,140,3.0,5.0,89,0.00,CLR,,0.01,0.0,WeatherDisplay:10.37,2013-02-10 04:30:00,
2013-02-10 06:40:00,46.8,43.7,29.92,SSE,159,3.0,5.0,89,0.00,CLR,,0.01,0.0,WeatherDisplay:10.37,2013-02-10 04:40:00,
2013-02-10 06:50:00,46.0,42.9,29.92,WNW,290,5.0,8.0,89,0.00,CLR,,0.01,0.0,WeatherDisplay:10.37,2013-02-10 04:50:00,
2013-02-10 07:00:00,45.4,43.2,29.92,WNW,292,2.0,4.0,92,0.00,OVC,,0.01,0.0,WeatherDisplay:10.37,2013-02-10 05:00:00,
2013-02-10 07:10:00,45.3,43.1,29.92,WNW,302,3.0,5.0,92,0.00,OVC,,0.01,0.0,WeatherDisplay:10.37,2013-02-10 05:10:00,
2013-02-10 07:20:00,45.3,43.4,29.92,NW,304,0.0,3.0,93,0.00,OVC,,0.01,0.0,WeatherDisplay:10.37,2013-02-10 05:20:00,
2013-02-10 07:30:00,45.0,43.1,29.92,NW,304,0.0,0.0,93,0.00,OVC,,0.01,9.0,WeatherDisplay:10.37,2013-02-10 05:30:00,
2013-02-10 07:40:00,44.7,43.1,29.92,NW,304,0.0,0.0,94,0.00,OVC,,0.01,16.0,WeatherDisplay:10.37,2013-02-10 05:40:00,
2013-02-10 07:50:00,44.7,43.1,29.92,NW,304,0.0,0.0,94,0.00,OVC,,0.01,30.0,WeatherDisplay:10.37,2013-02-10 05:50:00,
2013-02-10 08:00:00,44.7,43.0,29.92,North,6,2.0,3.0,94,0.00,BKN,,0.01,44.0,WeatherDisplay:10.37,2013-02-10 06:00:00,
2013-02-10 08:10:00,45.0,43.7,29.91,ENE,75,3.0,4.0,95,0.00,BKN,,0.01,54.0,WeatherDisplay:10.37,2013-02-10 06:10:00,
2013-02-10 08:20:00,45.3,43.7,29.92,ESE,109,3.0,5.0,94,0.00,BKN,,0.01,62.0,WeatherDisplay:10.37,2013-02-10 06:20:00,
2013-02-10 08:30:00,46.2,44.2,29.92,SE,137,3.0,6.0,93,0.00,OVC,,0.01,58.0,WeatherDisplay:10.37,2013-02-10 06:30:00,
2013-02-10 08:40:00,47.3,44.5,29.91,SSE,168,7.0,8.0,90,0.00,BKN,,0.01,93.0,WeatherDisplay:10.37,2013-02-10 06:40:00,
2013-02-10 09:00:00,49.1,44.5,29.91,SSE,165,6.0,12.0,84,0.00,BKN,,0.01,84.0,WeatherDisplay:10.37,2013-02-10 07:00:00,
2013-02-10 09:10:00,49.0,44.6,29.92,WSW,251,6.0,10.0,85,0.00,BKN,,0.01,120.0,WeatherDisplay:10.37,2013-02-10 07:10:00,
2013-02-10 09:20:00,46.7,44.2,29.92,WNW,290,5.0,7.0,91,0.00,BKN,,0.01,118.0,WeatherDisplay:10.37,2013-02-10 07:20:00,
2013-02-10 09:30:00,46.6,44.4,29.92,NW,305,6.0,12.0,92,0.00,OVC,,0.01,44.0,WeatherDisplay:10.37,2013-02-10 07:30:00,
2013-02-10 09:40:00,46.1,43.9,29.92,WNW,297,3.0,7.0,92,0.00,OVC,,0.01,83.0,WeatherDisplay:10.37,2013-02-10 07:40:00,
2013-02-10 09:50:00,46.0,44.1,29.92,WNW,303,3.0,5.0,93,0.00,BKN,,0.01,155.0,WeatherDisplay:10.37,2013-02-10 07:50:00,
2013-02-10 10:00:00,45.9,44.0,29.92,WNW,294,2.0,5.0,93,0.00,SCT,,0.01,195.0,WeatherDisplay:10.37,2013-02-10 08:00:00,
2013-02-10 10:10:00,46.4,44.8,29.92,WNW,286,1.0,5.0,94,0.00,OVC,,0.01,134.0,WeatherDisplay:10.37,2013-02-10 08:10:00,
2013-02-10 10:20:00,46.9,45.0,29.92,WNW,286,0.0,2.0,93,0.00,OVC,,0.01,135.0,WeatherDisplay:10.37,2013-02-10 08:20:00,
2013-02-10 10:30:00,47.5,45.3,29.92,WNW,286,0.0,2.0,92,0.00,OVC,,0.01,142.0,WeatherDisplay:10.37,2013-02-10 08:30:00,
2013-02-10 10:40:00,47.6,45.1,29.93,WNW,286,1.0,3.0,91,0.00,OVC,,0.01,149.0,WeatherDisplay:10.37,2013-02-10 08:40:00,
2013-02-10 10:50:00,47.8,45.6,29.93,WNW,289,1.0,3.0,92,0.00,BKN,,0.01,186.0,WeatherDisplay:10.37,2013-02-10 08:50:00,
2013-02-10 11:00:00,47.9,46.0,29.93,WNW,286,0.0,3.0,93,0.00,OVC,,0.01,77.0,WeatherDisplay:10.37,2013-02-10 09:00:00,
2013-02-10 11:10:00,48.1,46.1,29.94,WNW,283,3.0,6.0,93,0.00,OVC,,0.01,77.0,WeatherDisplay:10.37,2013-02-10 09:10:00,
2013-02-10 11:20:00,47.7,46.0,29.94,WNW,287,3.0,5.0,94,0.01,RA,,0.02,72.0,WeatherDisplay:10.37,2013-02-10 09:20:00,
2013-02-10 11:30:00,47.1,45.5,29.94,NW,305,2.0,4.0,94,0.00,OVC,,0.02,63.0,WeatherDisplay:10.37,2013-02-10 09:30:00,
2013-02-10 11:40:00,47.1,45.8,29.94,NW,311,1.0,5.0,95,0.00,BKN,,0.02,195.0,WeatherDisplay:10.37,2013-02-10 09:40:00,
2013-02-10 11:50:00,48.4,47.3,29.94,WSW,257,3.0,9.0,96,0.00,FEW,,0.02,327.0,WeatherDisplay:10.37,2013-02-10 09:50:00,
2013-02-10 12:00:00,49.6,47.6,29.93,WSW,240,8.0,14.0,93,0.00,SCT,,0.02,209.0,WeatherDisplay:10.37,2013-02-10 10:00:00,
2013-02-10 12:10:00,49.7,47.2,29.93,WSW,240,6.0,12.0,91,0.00,BKN,,0.02,197.0,WeatherDisplay:10.37,2013-02-10 10:10:00,
2013-02-10 12:20:00,49.5,46.4,29.93,WSW,241,8.0,14.0,89,0.00,OVC,,0.02,148.0,WeatherDisplay:10.37,2013-02-10 10:20:00,
2013-02-10 12:30:00,49.0,45.6,29.93,WSW,249,8.0,13.0,88,0.00,OVC,,0.02,83.0,WeatherDisplay:10.37,2013-02-10 10:30:00,
2013-02-10 12:40:00,48.5,45.7,29.93,WSW,249,6.0,12.0,90,0.01,RA,,0.02,63.0,WeatherDisplay:10.37,2013-02-10 10:40:00,
2013-02-10 12:50:00,48.1,45.6,29.94,SW,235,2.0,9.0,91,0.02,RA,,0.04,58.0,WeatherDisplay:10.37,2013-02-10 10:50:00,
2013-02-10 13:00:00,48.0,45.7,29.93,SW,219,1.0,8.0,92,0.01,RA,,0.05,95.0,WeatherDisplay:10.37,2013-02-10 11:00:00,
2013-02-10 13:10:00,47.9,45.6,29.93,SW,224,2.0,5.0,92,0.01,RA,,0.05,114.0,WeatherDisplay:10.37,2013-02-10 11:10:00,
2013-02-10 13:20:00,48.1,45.9,29.92,SW,223,0.0,6.0,92,0.00,BKN,,0.05,192.0,WeatherDisplay:10.37,2013-02-10 11:20:00,
2013-02-10 13:30:00,48.3,45.5,29.92,SW,229,2.0,5.0,90,0.00,BKN,,0.05,218.0,WeatherDisplay:10.37,2013-02-10 11:30:00,
2013-02-10 13:40:00,48.5,46.0,29.91,SW,229,1.0,6.0,91,0.00,BKN,,0.05,216.0,WeatherDisplay:10.37,2013-02-10 11:40:00,
2013-02-10 13:50:00,48.6,45.8,29.91,WSW,252,5.0,8.0,90,0.00,OVC,,0.05,149.0,WeatherDisplay:10.37,2013-02-10 11:50:00,
2013-02-10 14:00:00,48.4,45.9,29.91,West,264,5.0,8.0,91,0.00,OVC,,0.05,100.0,WeatherDisplay:10.37,2013-02-10 12:00:00,
2013-02-10 14:10:00,47.9,45.4,29.91,WSW,245,6.0,12.0,91,0.00,OVC,,0.05,98.0,WeatherDisplay:10.37,2013-02-10 12:10:00,
2013-02-10 14:20:00,47.9,45.4,29.91,SW,224,7.0,10.0,91,0.00,OVC,,0.05,118.0,WeatherDisplay:10.37,2013-02-10 12:20:00,
2013-02-10 14:30:00,47.9,45.1,29.90,SW,233,3.0,9.0,90,0.00,OVC,,0.05,65.0,WeatherDisplay:10.37,2013-02-10 12:30:00,
2013-02-10 14:40:00,47.7,44.9,29.90,SW,222,5.0,10.0,90,0.00,OVC,,0.05,63.0,WeatherDisplay:10.37,2013-02-10 12:40:00,
2013-02-10 14:50:00,47.5,44.7,29.90,SW,214,7.0,12.0,90,0.01,RA,,0.06,83.0,WeatherDisplay:10.37,2013-02-10 12:50:00,
2013-02-10 15:00:00,47.3,44.5,29.90,SSW,210,8.0,12.0,90,0.00,FEW,,0.06,255.0,WeatherDisplay:10.37,2013-02-10 13:00:00,
2013-02-10 15:10:00,47.8,45.0,29.89,SSW,208,5.0,10.0,90,0.00,CLR,,0.06,214.0,WeatherDisplay:10.37,2013-02-10 13:10:00,
2013-02-10 15:20:00,48.1,45.1,29.89,South,188,5.0,9.0,89,0.00,SCT,,0.06,172.0,WeatherDisplay:10.37,2013-02-10 13:20:00,
2013-02-10 15:30:00,48.4,45.6,29.88,South,183,7.0,10.0,90,0.00,CLR,,0.06,281.0,WeatherDisplay:10.37,2013-02-10 13:30:00,
2013-02-10 15:40:00,48.3,45.2,29.88,South,174,7.0,12.0,89,0.00,BKN,,0.06,90.0,WeatherDisplay:10.37,2013-02-10 13:40:00,
2013-02-10 15:50:00,48.0,44.9,29.88,South,170,5.0,13.0,89,0.00,OVC,,0.06,62.0,WeatherDisplay:10.37,2013-02-10 13:50:00,
2013-02-10 16:00:00,47.7,44.9,29.88,South,175,8.0,14.0,90,0.00,OVC,,0.06,49.0,WeatherDisplay:10.37,2013-02-10 14:00:00,
2013-02-10 16:10:00,47.5,44.7,29.88,SSE,166,6.0,12.0,90,0.00,OVC,,0.06,39.0,WeatherDisplay:10.37,2013-02-10 14:10:00,
2013-02-10 16:20:00,47.3,44.5,29.87,SSE,163,5.0,9.0,90,0.00,OVC,,0.06,42.0,WeatherDisplay:10.37,2013-02-10 14:20:00,
2013-02-10 16:30:00,47.2,44.4,29.87,South,175,6.0,9.0,90,0.00,OVC,,0.06,35.0,WeatherDisplay:10.37,2013-02-10 14:30:00,
2013-02-10 16:40:00,47.2,44.1,29.87,South,176,5.0,9.0,89,0.00,OVC,,0.06,25.0,WeatherDisplay:10.37,2013-02-10 14:40:00,
2013-02-10 16:50:00,47.3,44.5,29.87,South,179,3.0,7.0,90,0.00,OVC,,0.06,12.0,WeatherDisplay:10.37,2013-02-10 14:50:00,
2013-02-10 17:00:00,47.2,44.1,29.86,South,172,1.0,9.0,89,0.00,OVC,,0.06,9.0,WeatherDisplay:10.37,2013-02-10 15:00:00,
2013-02-10 17:10:00,47.1,44.0,29.86,South,179,1.0,9.0,89,0.00,OVC,,0.06,5.0,WeatherDisplay:10.37,2013-02-10 15:10:00,
2013-02-10 17:20:00,47.1,44.0,29.86,SSW,194,3.0,7.0,89,0.00,OVC,,0.06,0.0,WeatherDisplay:10.37,2013-02-10 15:20:00,
2013-02-10 17:30:00,47.2,44.1,29.87,SSW,212,3.0,9.0,89,0.00,OVC,,0.06,0.0,WeatherDisplay:10.37,2013-02-10 15:30:00,
2013-02-10 17:40:00,47.1,44.0,29.86,SSW,203,6.0,10.0,89,0.00,OVC,,0.06,0.0,WeatherDisplay:10.37,2013-02-10 15:40:00,
2013-02-10 17:50:00,46.8,44.0,29.86,SSE,165,3.0,12.0,90,0.00,OVC,,0.06,0.0,WeatherDisplay:10.37,2013-02-10 15:50:00,
2013-02-10 18:00:00,46.7,43.9,29.86,SSW,210,0.0,12.0,90,0.00,CLR,,0.06,0.0,WeatherDisplay:10.37,2013-02-10 16:00:00,
2013-02-10 18:10:00,46.7,43.9,29.86,SSW,212,3.0,8.0,90,0.00,CLR,,0.06,0.0,WeatherDisplay:10.37,2013-02-10 16:10:00,
2013-02-10 18:20:00,46.8,43.7,29.86,South,178,3.0,9.0,89,0.00,CLR,,0.06,0.0,WeatherDisplay:10.37,2013-02-10 16:20:00,
2013-02-10 18:30:00,46.8,43.7,29.87,South,184,3.0,9.0,89,0.00,CLR,,0.06,0.0,WeatherDisplay:10.37,2013-02-10 16:30:00,
2013-02-10 18:40:00,46.8,43.7,29.86,South,186,6.0,10.0,89,0.00,CLR,,0.06,0.0,WeatherDisplay:10.37,2013-02-10 16:40:00,
2013-02-10 18:50:00,46.8,43.7,29.86,South,191,8.0,13.0,89,0.00,CLR,,0.06,0.0,WeatherDisplay:10.37,2013-02-10 16:50:00,
2013-02-10 19:00:00,46.8,43.4,29.86,South,190,7.0,12.0,88,0.00,CLR,,0.06,0.0,WeatherDisplay:10.37,2013-02-10 17:00:00,
2013-02-10 19:10:00,46.9,43.5,29.86,South,188,8.0,14.0,88,0.00,CLR,,0.06,0.0,WeatherDisplay:10.37,2013-02-10 17:10:00,
2013-02-10 19:20:00,46.9,43.3,29.85,South,187,8.0,15.0,87,0.00,CLR,,0.06,0.0,WeatherDisplay:10.37,2013-02-10 17:20:00,
2013-02-10 19:30:00,46.9,43.3,29.85,South,175,10.0,14.0,87,0.00,CLR,,0.06,0.0,WeatherDisplay:10.37,2013-02-10 17:30:00,
2013-02-10 19:40:00,47.1,43.4,29.85,South,175,9.0,18.0,87,0.00,CLR,,0.06,0.0,WeatherDisplay:10.37,2013-02-10 17:40:00,
2013-02-10 19:50:00,47.2,43.2,29.85,SSW,195,3.0,14.0,86,0.00,CLR,,0.06,0.0,WeatherDisplay:10.37,2013-02-10 17:50:00,
2013-02-10 20:00:00,47.3,43.3,29.85,South,180,0.0,6.0,86,0.00,CLR,,0.06,0.0,WeatherDisplay:10.37,2013-02-10 18:00:00,
2013-02-10 20:10:00,47.1,43.1,29.85,South,173,1.0,4.0,86,0.00,CLR,,0.06,0.0,WeatherDisplay:10.37,2013-02-10 18:10:00,
2013-02-10 20:20:00,47.3,43.3,29.85,South,178,3.0,5.0,86,0.00,CLR,,0.06,0.0,WeatherDisplay:10.37,2013-02-10 18:20:00,
2013-02-10 20:30:00,47.4,43.1,29.85,South,191,3.0,8.0,85,0.00,CLR,,0.06,0.0,WeatherDisplay:10.37,2013-02-10 18:30:00,
2013-02-10 20:40:00,47.6,43.3,29.85,SSW,198,5.0,8.0,85,0.00,CLR,,0.06,0.0,WeatherDisplay:10.37,2013-02-10 18:40:00,
2013-02-10 20:50:00,47.7,43.4,29.85,SSW,192,3.0,8.0,85,0.00,CLR,,0.06,0.0,WeatherDisplay:10.37,2013-02-10 18:50:00,
2013-02-10 21:00:00,47.7,43.4,29.85,South,173,3.0,9.0,85,0.00,CLR,,0.06,0.0,WeatherDisplay:10.37,2013-02-10 19:00:00,
2013-02-10 21:10:00,47.5,43.5,29.85,SSE,161,3.0,6.0,86,0.00,CLR,,0.06,0.0,WeatherDisplay:10.37,2013-02-10 19:10:00,
2013-02-10 21:20:00,47.4,43.4,29.85,South,180,1.0,6.0,86,0.00,CLR,,0.06,0.0,WeatherDisplay:10.37,2013-02-10 19:20:00,
2013-02-10 21:30:00,47.3,43.6,29.85,SSW,192,8.0,12.0,87,0.00,CLR,,0.06,0.0,WeatherDisplay:10.37,2013-02-10 19:30:00,
2013-02-10 21:40:00,47.5,43.8,29.85,SSW,206,9.0,17.0,87,0.00,CLR,,0.06,0.0,WeatherDisplay:10.37,2013-02-10 19:40:00,
2013-02-10 21:50:00,47.4,43.7,29.85,SSW,194,10.0,16.0,87,0.00,CLR,,0.06,0.0,WeatherDisplay:10.37,2013-02-10 19:50:00,
2013-02-10 22:00:00,47.2,43.8,29.85,South,189,7.0,15.0,88,0.00,CLR,,0.06,0.0,WeatherDisplay:10.37,2013-02-10 20:00:00,
2013-02-10 22:10:00,47.1,44.0,29.85,SSW,194,7.0,14.0,89,0.00,CLR,,0.06,0.0,WeatherDisplay:10.37,2013-02-10 20:10:00,
2013-02-10 22:20:00,46.9,43.9,29.85,SSW,194,8.0,16.0,89,0.00,CLR,,0.06,0.0,WeatherDisplay:10.37,2013-02-10 20:20:00,
2013-02-10 22:30:00,46.9,43.8,29.85,SSW,199,7.0,14.0,89,0.00,CLR,,0.06,0.0,WeatherDisplay:10.37,2013-02-10 20:30:00,
2013-02-10 22:40:00,46.8,44.0,29.85,SSW,200,6.0,13.0,90,0.00,CLR,,0.06,0.0,WeatherDisplay:10.37,2013-02-10 20:40:00,
2013-02-10 23:00:00,46.8,44.0,29.84,South,183,8.0,15.0,90,0.00,CLR,,0.06,0.0,WeatherDisplay:10.37,2013-02-10 21:00:00,
2013-02-10 23:10:00,47.0,43.9,29.84,SSW,205,10.0,20.0,89,0.00,CLR,,0.06,0.0,WeatherDisplay:10.37,2013-02-10 21:10:00,
2013-02-10 23:20:00,47.1,43.7,29.84,SSW,208,13.0,17.0,88,0.00,CLR,,0.06,0.0,WeatherDisplay:10.37,2013-02-10 21:20:00,
2013-02-10 23:30:00,47.2,43.8,29.84,SSW,210,10.0,16.0,88,0.00,CLR,,0.06,0.0,WeatherDisplay:10.37,2013-02-10 21:30:00,
2013-02-10 23:40:00,47.1,43.7,29.84,SSW,206,10.0,16.0,88,0.00,CLR,,0.06,0.0,WeatherDisplay:10.37,2013-02-10 21:40:00,
2013-02-10 23:50:00,47.0,43.9,29.84,SSW,208,7.0,15.0,89,0.00,CLR,,0.06,0.0,WeatherDisplay:10.37,2013-02-10 21:50:00,